sensor_id;sensor_type;location;lat;lon;timestamp;P1;durP1;ratioP1;P2;durP2;ratioP2
9559;SDS011;4818;50.860;4.648;2023-05-10T00:00:40;11.55;;;5.38;;
9559;SDS011;4818;50.860;4.648;2023-05-10T00:03:07;15.18;;;6.13;;
9559;SDS011;4818;50.860;4.648;2023-05-10T00:05:33;11.27;;;6.22;;
9559;SDS011;4818;50.860;4.648;2023-05-10T00:08:00;21.02;;;7.78;;
9559;SDS011;4818;50.860;4.648;2023-05-10T00:10:31;15.20;;;6.60;;
9559;SDS011;4818;50.860;4.648;2023-05-10T00:12:57;18.30;;;7.20;;
9559;SDS011;4818;50.860;4.648;2023-05-10T00:15:24;14.93;;;7.32;;
9559;SDS011;4818;50.860;4.648;2023-05-10T00:17:50;13.57;;;6.82;;
9559;SDS011;4818;50.860;4.648;2023-05-10T00:20:16;22.00;;;8.25;;
9559;SDS011;4818;50.860;4.648;2023-05-10T00:22:42;12.35;;;7.45;;
9559;SDS011;4818;50.860;4.648;2023-05-10T00:25:09;16.13;;;8.13;;
9559;SDS011;4818;50.860;4.648;2023-05-10T00:27:35;14.73;;;7.18;;
9559;SDS011;4818;50.860;4.648;2023-05-10T00:30:02;13.43;;;7.07;;
9559;SDS011;4818;50.860;4.648;2023-05-10T00:32:31;19.92;;;7.97;;
9559;SDS011;4818;50.860;4.648;2023-05-10T00:34:57;13.55;;;6.53;;
9559;SDS011;4818;50.860;4.648;2023-05-10T00:37:23;16.27;;;6.63;;
9559;SDS011;4818;50.860;4.648;2023-05-10T00:39:50;21.98;;;8.02;;
9559;SDS011;4818;50.860;4.648;2023-05-10T00:42:16;17.75;;;6.85;;
9559;SDS011;4818;50.860;4.648;2023-05-10T00:44:45;16.98;;;7.47;;
9559;SDS011;4818;50.860;4.648;2023-05-10T00:47:11;17.73;;;7.78;;
9559;SDS011;4818;50.860;4.648;2023-05-10T00:49:38;20.10;;;7.07;;
9559;SDS011;4818;50.860;4.648;2023-05-10T00:52:04;13.77;;;7.45;;
9559;SDS011;4818;50.860;4.648;2023-05-10T00:54:33;15.48;;;8.77;;
9559;SDS011;4818;50.860;4.648;2023-05-10T00:56:59;16.50;;;8.48;;
9559;SDS011;4818;50.860;4.648;2023-05-10T00:59:26;17.45;;;7.80;;
9559;SDS011;4818;50.860;4.648;2023-05-10T01:01:52;18.27;;;7.60;;
9559;SDS011;4818;50.860;4.648;2023-05-10T01:04:19;13.05;;;7.05;;
9559;SDS011;4818;50.860;4.648;2023-05-10T01:06:51;15.32;;;8.35;;
9559;SDS011;4818;50.860;4.648;2023-05-10T01:09:18;20.02;;;9.30;;
9559;SDS011;4818;50.860;4.648;2023-05-10T01:11:44;20.77;;;9.07;;
9559;SDS011;4818;50.860;4.648;2023-05-10T01:14:11;19.98;;;8.32;;
9559;SDS011;4818;50.860;4.648;2023-05-10T01:16:38;26.02;;;10.18;;
9559;SDS011;4818;50.860;4.648;2023-05-10T01:21:45;15.80;;;7.93;;
9559;SDS011;4818;50.860;4.648;2023-05-10T01:24:26;25.20;;;8.82;;
9559;SDS011;4818;50.860;4.648;2023-05-10T01:35:02;22.02;;;9.52;;
9559;SDS011;4818;50.860;4.648;2023-05-10T01:40:10;24.30;;;9.30;;
9559;SDS011;4818;50.860;4.648;2023-05-10T01:43:01;20.95;;;9.80;;
9559;SDS011;4818;50.860;4.648;2023-05-10T01:45:30;18.83;;;9.55;;
9559;SDS011;4818;50.860;4.648;2023-05-10T01:48:05;19.38;;;9.77;;
9559;SDS011;4818;50.860;4.648;2023-05-10T01:50:32;25.63;;;9.95;;
9559;SDS011;4818;50.860;4.648;2023-05-10T01:53:00;22.67;;;10.55;;
9559;SDS011;4818;50.860;4.648;2023-05-10T01:55:31;23.60;;;9.63;;
9559;SDS011;4818;50.860;4.648;2023-05-10T01:58:00;15.02;;;9.13;;
9559;SDS011;4818;50.860;4.648;2023-05-10T02:00:27;20.27;;;9.83;;
9559;SDS011;4818;50.860;4.648;2023-05-10T02:02:55;24.13;;;10.30;;
9559;SDS011;4818;50.860;4.648;2023-05-10T02:05:22;20.25;;;9.70;;
9559;SDS011;4818;50.860;4.648;2023-05-10T02:07:48;22.50;;;11.65;;
9559;SDS011;4818;50.860;4.648;2023-05-10T02:10:15;21.42;;;10.63;;
9559;SDS011;4818;50.860;4.648;2023-05-10T02:12:42;22.40;;;10.93;;
9559;SDS011;4818;50.860;4.648;2023-05-10T02:15:10;23.00;;;10.90;;
9559;SDS011;4818;50.860;4.648;2023-05-10T02:17:37;20.88;;;10.50;;
9559;SDS011;4818;50.860;4.648;2023-05-10T02:22:33;21.77;;;9.38;;
9559;SDS011;4818;50.860;4.648;2023-05-10T02:24:59;17.08;;;9.85;;
9559;SDS011;4818;50.860;4.648;2023-05-10T02:27:27;19.30;;;8.90;;
9559;SDS011;4818;50.860;4.648;2023-05-10T02:29:56;26.92;;;12.63;;
9559;SDS011;4818;50.860;4.648;2023-05-10T02:32:22;19.45;;;10.88;;
9559;SDS011;4818;50.860;4.648;2023-05-10T02:34:50;22.77;;;10.95;;
9559;SDS011;4818;50.860;4.648;2023-05-10T02:37:18;18.50;;;10.18;;
9559;SDS011;4818;50.860;4.648;2023-05-10T02:39:47;23.33;;;11.82;;
9559;SDS011;4818;50.860;4.648;2023-05-10T02:42:18;23.35;;;10.45;;
9559;SDS011;4818;50.860;4.648;2023-05-10T02:44:48;31.98;;;10.65;;
9559;SDS011;4818;50.860;4.648;2023-05-10T02:47:14;19.95;;;10.52;;
9559;SDS011;4818;50.860;4.648;2023-05-10T02:49:41;17.80;;;9.60;;
9559;SDS011;4818;50.860;4.648;2023-05-10T02:52:07;21.75;;;10.32;;
9559;SDS011;4818;50.860;4.648;2023-05-10T02:54:41;22.73;;;10.90;;
9559;SDS011;4818;50.860;4.648;2023-05-10T02:57:10;19.85;;;10.07;;
9559;SDS011;4818;50.860;4.648;2023-05-10T02:59:50;21.23;;;9.93;;
9559;SDS011;4818;50.860;4.648;2023-05-10T03:02:16;23.15;;;9.65;;
9559;SDS011;4818;50.860;4.648;2023-05-10T03:04:42;17.45;;;10.27;;
9559;SDS011;4818;50.860;4.648;2023-05-10T03:07:14;22.77;;;9.85;;
9559;SDS011;4818;50.860;4.648;2023-05-10T03:09:41;21.75;;;10.65;;
9559;SDS011;4818;50.860;4.648;2023-05-10T03:17:41;20.17;;;10.10;;
9559;SDS011;4818;50.860;4.648;2023-05-10T03:20:12;20.83;;;9.27;;
9559;SDS011;4818;50.860;4.648;2023-05-10T03:22:43;19.80;;;9.50;;
9559;SDS011;4818;50.860;4.648;2023-05-10T03:25:10;19.35;;;9.43;;
9559;SDS011;4818;50.860;4.648;2023-05-10T03:27:38;18.15;;;8.85;;
9559;SDS011;4818;50.860;4.648;2023-05-10T03:30:06;14.85;;;8.48;;
9559;SDS011;4818;50.860;4.648;2023-05-10T03:32:34;18.23;;;9.43;;
9559;SDS011;4818;50.860;4.648;2023-05-10T03:35:01;17.40;;;8.75;;
9559;SDS011;4818;50.860;4.648;2023-05-10T03:37:29;20.60;;;8.90;;
9559;SDS011;4818;50.860;4.648;2023-05-10T03:39:55;14.27;;;7.97;;
9559;SDS011;4818;50.860;4.648;2023-05-10T03:42:22;17.42;;;7.60;;
9559;SDS011;4818;50.860;4.648;2023-05-10T03:44:48;16.30;;;8.60;;
9559;SDS011;4818;50.860;4.648;2023-05-10T03:47:16;19.48;;;8.80;;
9559;SDS011;4818;50.860;4.648;2023-05-10T03:49:45;24.45;;;10.02;;
9559;SDS011;4818;50.860;4.648;2023-05-10T03:52:11;20.50;;;9.35;;
9559;SDS011;4818;50.860;4.648;2023-05-10T03:54:37;21.42;;;10.38;;
9559;SDS011;4818;50.860;4.648;2023-05-10T03:57:06;24.65;;;11.55;;
9559;SDS011;4818;50.860;4.648;2023-05-10T03:59:32;21.38;;;9.88;;
9559;SDS011;4818;50.860;4.648;2023-05-10T04:01:59;23.27;;;10.93;;
9559;SDS011;4818;50.860;4.648;2023-05-10T04:04:25;21.63;;;11.90;;
9559;SDS011;4818;50.860;4.648;2023-05-10T04:06:51;29.30;;;13.23;;
9559;SDS011;4818;50.860;4.648;2023-05-10T04:09:20;37.75;;;14.40;;
9559;SDS011;4818;50.860;4.648;2023-05-10T04:11:46;31.75;;;14.48;;
9559;SDS011;4818;50.860;4.648;2023-05-10T04:14:20;29.63;;;14.35;;
9559;SDS011;4818;50.860;4.648;2023-05-10T04:16:46;34.75;;;16.33;;
9559;SDS011;4818;50.860;4.648;2023-05-10T04:19:15;36.88;;;16.13;;
9559;SDS011;4818;50.860;4.648;2023-05-10T04:21:41;41.15;;;17.00;;
9559;SDS011;4818;50.860;4.648;2023-05-10T04:24:19;35.75;;;15.05;;
9559;SDS011;4818;50.860;4.648;2023-05-10T04:26:46;44.47;;;16.67;;
9559;SDS011;4818;50.860;4.648;2023-05-10T04:29:12;34.80;;;15.25;;
9559;SDS011;4818;50.860;4.648;2023-05-10T04:31:38;39.03;;;15.65;;
9559;SDS011;4818;50.860;4.648;2023-05-10T04:34:05;42.22;;;17.95;;
9559;SDS011;4818;50.860;4.648;2023-05-10T04:36:31;42.88;;;17.67;;
9559;SDS011;4818;50.860;4.648;2023-05-10T04:39:00;40.30;;;17.30;;
9559;SDS011;4818;50.860;4.648;2023-05-10T04:41:28;38.85;;;17.33;;
9559;SDS011;4818;50.860;4.648;2023-05-10T04:43:54;37.78;;;17.48;;
9559;SDS011;4818;50.860;4.648;2023-05-10T04:46:21;41.67;;;17.95;;
9559;SDS011;4818;50.860;4.648;2023-05-10T04:48:47;42.25;;;17.52;;
9559;SDS011;4818;50.860;4.648;2023-05-10T04:51:14;45.45;;;18.35;;
9559;SDS011;4818;50.860;4.648;2023-05-10T04:53:42;50.75;;;20.50;;
9559;SDS011;4818;50.860;4.648;2023-05-10T04:56:09;39.00;;;17.52;;
9559;SDS011;4818;50.860;4.648;2023-05-10T04:58:35;44.28;;;19.58;;
9559;SDS011;4818;50.860;4.648;2023-05-10T05:01:06;45.47;;;18.88;;
9559;SDS011;4818;50.860;4.648;2023-05-10T05:03:33;52.13;;;20.70;;
9559;SDS011;4818;50.860;4.648;2023-05-10T05:05:59;52.90;;;21.00;;
9559;SDS011;4818;50.860;4.648;2023-05-10T05:08:26;59.45;;;21.63;;
9559;SDS011;4818;50.860;4.648;2023-05-10T05:10:52;46.30;;;20.48;;
9559;SDS011;4818;50.860;4.648;2023-05-10T05:13:19;53.08;;;22.88;;
9559;SDS011;4818;50.860;4.648;2023-05-10T05:15:46;52.88;;;21.52;;
9559;SDS011;4818;50.860;4.648;2023-05-10T05:18:12;53.95;;;21.33;;
9559;SDS011;4818;50.860;4.648;2023-05-10T05:20:38;52.63;;;20.90;;
9559;SDS011;4818;50.860;4.648;2023-05-10T05:23:04;59.05;;;23.38;;
9559;SDS011;4818;50.860;4.648;2023-05-10T05:25:31;50.25;;;23.27;;
9559;SDS011;4818;50.860;4.648;2023-05-10T05:27:57;55.40;;;23.23;;
9559;SDS011;4818;50.860;4.648;2023-05-10T05:30:23;52.28;;;22.65;;
9559;SDS011;4818;50.860;4.648;2023-05-10T05:32:49;52.25;;;21.27;;
9559;SDS011;4818;50.860;4.648;2023-05-10T05:35:16;51.22;;;21.98;;
9559;SDS011;4818;50.860;4.648;2023-05-10T05:37:42;53.63;;;23.48;;
9559;SDS011;4818;50.860;4.648;2023-05-10T05:40:12;49.00;;;21.92;;
9559;SDS011;4818;50.860;4.648;2023-05-10T05:42:38;49.67;;;21.92;;
9559;SDS011;4818;50.860;4.648;2023-05-10T05:45:09;52.05;;;21.83;;
9559;SDS011;4818;50.860;4.648;2023-05-10T05:47:46;54.90;;;21.90;;
9559;SDS011;4818;50.860;4.648;2023-05-10T05:50:12;46.20;;;21.25;;
9559;SDS011;4818;50.860;4.648;2023-05-10T05:52:38;48.00;;;20.95;;
9559;SDS011;4818;50.860;4.648;2023-05-10T05:55:05;45.50;;;20.60;;
9559;SDS011;4818;50.860;4.648;2023-05-10T05:57:36;46.83;;;20.60;;
9559;SDS011;4818;50.860;4.648;2023-05-10T06:00:03;42.42;;;20.15;;
9559;SDS011;4818;50.860;4.648;2023-05-10T06:02:32;52.05;;;21.88;;
9559;SDS011;4818;50.860;4.648;2023-05-10T06:04:58;50.03;;;22.13;;
9559;SDS011;4818;50.860;4.648;2023-05-10T06:07:25;50.03;;;21.35;;
9559;SDS011;4818;50.860;4.648;2023-05-10T06:09:53;46.20;;;20.17;;
9559;SDS011;4818;50.860;4.648;2023-05-10T06:12:20;41.58;;;19.95;;
9559;SDS011;4818;50.860;4.648;2023-05-10T06:14:46;47.30;;;20.63;;
9559;SDS011;4818;50.860;4.648;2023-05-10T06:17:19;45.10;;;19.08;;
9559;SDS011;4818;50.860;4.648;2023-05-10T06:19:49;44.97;;;20.13;;
9559;SDS011;4818;50.860;4.648;2023-05-10T06:22:15;43.22;;;18.85;;
9559;SDS011;4818;50.860;4.648;2023-05-10T06:24:42;44.75;;;18.95;;
9559;SDS011;4818;50.860;4.648;2023-05-10T06:27:08;39.60;;;18.85;;
9559;SDS011;4818;50.860;4.648;2023-05-10T06:29:37;41.27;;;18.73;;
9559;SDS011;4818;50.860;4.648;2023-05-10T06:32:08;44.97;;;19.90;;
9559;SDS011;4818;50.860;4.648;2023-05-10T06:34:35;32.95;;;17.55;;
9559;SDS011;4818;50.860;4.648;2023-05-10T06:37:02;37.22;;;17.77;;
9559;SDS011;4818;50.860;4.648;2023-05-10T06:39:28;35.28;;;16.52;;
9559;SDS011;4818;50.860;4.648;2023-05-10T06:42:02;28.15;;;13.77;;
9559;SDS011;4818;50.860;4.648;2023-05-10T06:44:29;24.65;;;11.93;;
9559;SDS011;4818;50.860;4.648;2023-05-10T06:46:56;20.58;;;11.25;;
9559;SDS011;4818;50.860;4.648;2023-05-10T06:49:22;12.20;;;7.57;;
9559;SDS011;4818;50.860;4.648;2023-05-10T06:51:48;7.82;;;4.57;;
9559;SDS011;4818;50.860;4.648;2023-05-10T06:54:17;6.25;;;3.13;;
9559;SDS011;4818;50.860;4.648;2023-05-10T06:56:43;4.88;;;2.72;;
9559;SDS011;4818;50.860;4.648;2023-05-10T06:59:10;8.02;;;2.90;;
9559;SDS011;4818;50.860;4.648;2023-05-10T07:01:37;7.50;;;2.45;;
9559;SDS011;4818;50.860;4.648;2023-05-10T07:04:03;6.70;;;3.20;;
9559;SDS011;4818;50.860;4.648;2023-05-10T07:06:30;6.35;;;3.25;;
9559;SDS011;4818;50.860;4.648;2023-05-10T07:08:56;5.65;;;3.05;;
9559;SDS011;4818;50.860;4.648;2023-05-10T07:11:22;6.13;;;2.88;;
9559;SDS011;4818;50.860;4.648;2023-05-10T07:13:48;13.95;;;3.40;;
9559;SDS011;4818;50.860;4.648;2023-05-10T07:16:15;10.07;;;3.60;;
9559;SDS011;4818;50.860;4.648;2023-05-10T07:18:48;10.40;;;3.00;;
9559;SDS011;4818;50.860;4.648;2023-05-10T07:21:15;8.82;;;3.33;;
9559;SDS011;4818;50.860;4.648;2023-05-10T07:23:41;4.22;;;2.58;;
9559;SDS011;4818;50.860;4.648;2023-05-10T07:26:10;4.47;;;2.42;;
9559;SDS011;4818;50.860;4.648;2023-05-10T07:28:36;4.10;;;2.50;;
9559;SDS011;4818;50.860;4.648;2023-05-10T07:31:03;3.42;;;1.77;;
9559;SDS011;4818;50.860;4.648;2023-05-10T07:33:31;2.15;;;1.17;;
9559;SDS011;4818;50.860;4.648;2023-05-10T07:35:58;6.93;;;1.25;;
9559;SDS011;4818;50.860;4.648;2023-05-10T07:38:24;3.00;;;0.90;;
9559;SDS011;4818;50.860;4.648;2023-05-10T07:40:53;5.90;;;1.27;;
9559;SDS011;4818;50.860;4.648;2023-05-10T07:43:21;3.50;;;1.45;;
9559;SDS011;4818;50.860;4.648;2023-05-10T07:45:48;3.15;;;1.45;;
9559;SDS011;4818;50.860;4.648;2023-05-10T07:48:14;5.50;;;2.03;;
9559;SDS011;4818;50.860;4.648;2023-05-10T07:50:40;6.40;;;1.95;;
9559;SDS011;4818;50.860;4.648;2023-05-10T07:53:06;4.97;;;2.72;;
9559;SDS011;4818;50.860;4.648;2023-05-10T07:55:33;6.00;;;3.28;;
9559;SDS011;4818;50.860;4.648;2023-05-10T07:57:59;14.98;;;4.70;;
9559;SDS011;4818;50.860;4.648;2023-05-10T08:00:26;8.88;;;3.95;;
9559;SDS011;4818;50.860;4.648;2023-05-10T08:02:52;9.50;;;4.07;;
9559;SDS011;4818;50.860;4.648;2023-05-10T08:05:19;11.23;;;5.28;;
9559;SDS011;4818;50.860;4.648;2023-05-10T08:07:45;9.48;;;4.97;;
9559;SDS011;4818;50.860;4.648;2023-05-10T08:10:12;11.88;;;5.45;;
9559;SDS011;4818;50.860;4.648;2023-05-10T08:12:38;13.23;;;5.85;;
9559;SDS011;4818;50.860;4.648;2023-05-10T08:15:04;15.48;;;6.88;;
9559;SDS011;4818;50.860;4.648;2023-05-10T08:17:33;13.18;;;5.95;;
9559;SDS011;4818;50.860;4.648;2023-05-10T08:20:02;14.70;;;6.20;;
9559;SDS011;4818;50.860;4.648;2023-05-10T08:22:34;12.43;;;6.10;;
9559;SDS011;4818;50.860;4.648;2023-05-10T08:25:00;12.48;;;6.13;;
9559;SDS011;4818;50.860;4.648;2023-05-10T08:27:27;15.82;;;7.00;;
9559;SDS011;4818;50.860;4.648;2023-05-10T08:29:53;15.35;;;6.57;;
9559;SDS011;4818;50.860;4.648;2023-05-10T08:32:19;12.93;;;5.85;;
9559;SDS011;4818;50.860;4.648;2023-05-10T08:34:46;15.70;;;6.75;;
9559;SDS011;4818;50.860;4.648;2023-05-10T08:37:12;17.40;;;6.78;;
9559;SDS011;4818;50.860;4.648;2023-05-10T08:39:38;12.48;;;6.55;;
9559;SDS011;4818;50.860;4.648;2023-05-10T08:42:05;17.73;;;6.75;;
9559;SDS011;4818;50.860;4.648;2023-05-10T08:44:35;12.77;;;5.55;;
9559;SDS011;4818;50.860;4.648;2023-05-10T08:47:02;11.18;;;5.00;;
9559;SDS011;4818;50.860;4.648;2023-05-10T08:49:30;14.43;;;5.50;;
9559;SDS011;4818;50.860;4.648;2023-05-10T08:51:57;8.50;;;4.82;;
9559;SDS011;4818;50.860;4.648;2023-05-10T08:54:26;11.05;;;5.20;;
9559;SDS011;4818;50.860;4.648;2023-05-10T08:56:52;7.55;;;4.35;;
9559;SDS011;4818;50.860;4.648;2023-05-10T08:59:18;10.13;;;3.92;;
9559;SDS011;4818;50.860;4.648;2023-05-10T09:01:45;9.45;;;4.22;;
9559;SDS011;4818;50.860;4.648;2023-05-10T09:04:13;8.93;;;3.65;;
9559;SDS011;4818;50.860;4.648;2023-05-10T09:06:42;8.82;;;3.85;;
9559;SDS011;4818;50.860;4.648;2023-05-10T09:09:08;8.60;;;3.88;;
9559;SDS011;4818;50.860;4.648;2023-05-10T09:11:35;9.80;;;3.95;;
9559;SDS011;4818;50.860;4.648;2023-05-10T09:14:01;9.63;;;4.13;;
9559;SDS011;4818;50.860;4.648;2023-05-10T09:16:27;8.85;;;3.95;;
9559;SDS011;4818;50.860;4.648;2023-05-10T09:18:54;5.15;;;2.90;;
9559;SDS011;4818;50.860;4.648;2023-05-10T09:21:20;11.80;;;4.07;;
9559;SDS011;4818;50.860;4.648;2023-05-10T09:23:46;10.05;;;3.22;;
9559;SDS011;4818;50.860;4.648;2023-05-10T09:26:15;5.03;;;2.50;;
9559;SDS011;4818;50.860;4.648;2023-05-10T09:28:57;6.15;;;2.83;;
9559;SDS011;4818;50.860;4.648;2023-05-10T09:31:24;10.30;;;3.00;;
9559;SDS011;4818;50.860;4.648;2023-05-10T09:33:51;7.00;;;3.05;;
9559;SDS011;4818;50.860;4.648;2023-05-10T09:36:23;7.13;;;3.58;;
9559;SDS011;4818;50.860;4.648;2023-05-10T09:38:51;7.03;;;3.05;;
9559;SDS011;4818;50.860;4.648;2023-05-10T09:43:46;7.05;;;2.92;;
9559;SDS011;4818;50.860;4.648;2023-05-10T09:46:12;6.20;;;2.20;;
9559;SDS011;4818;50.860;4.648;2023-05-10T09:48:42;10.02;;;2.80;;
9559;SDS011;4818;50.860;4.648;2023-05-10T09:51:09;4.97;;;2.13;;
9559;SDS011;4818;50.860;4.648;2023-05-10T09:53:40;4.82;;;1.27;;
9559;SDS011;4818;50.860;4.648;2023-05-10T09:56:11;4.07;;;2.22;;
9559;SDS011;4818;50.860;4.648;2023-05-10T09:58:40;4.53;;;1.67;;
9559;SDS011;4818;50.860;4.648;2023-05-10T10:01:10;6.25;;;1.70;;
9559;SDS011;4818;50.860;4.648;2023-05-10T10:03:43;3.38;;;1.50;;
9559;SDS011;4818;50.860;4.648;2023-05-10T10:06:12;4.78;;;1.20;;
9559;SDS011;4818;50.860;4.648;2023-05-10T10:08:50;4.20;;;1.75;;
9559;SDS011;4818;50.860;4.648;2023-05-10T10:11:16;3.65;;;1.23;;
9559;SDS011;4818;50.860;4.648;2023-05-10T10:16:16;2.50;;;1.40;;
9559;SDS011;4818;50.860;4.648;2023-05-10T10:18:42;3.08;;;1.33;;
9559;SDS011;4818;50.860;4.648;2023-05-10T10:21:12;3.38;;;1.33;;
9559;SDS011;4818;50.860;4.648;2023-05-10T10:23:39;2.45;;;1.33;;
9559;SDS011;4818;50.860;4.648;2023-05-10T10:26:05;5.93;;;1.02;;
9559;SDS011;4818;50.860;4.648;2023-05-10T10:31:27;2.55;;;0.90;;
9559;SDS011;4818;50.860;4.648;2023-05-10T10:34:01;2.63;;;0.77;;
9559;SDS011;4818;50.860;4.648;2023-05-10T10:36:29;1.67;;;0.65;;
9559;SDS011;4818;50.860;4.648;2023-05-10T10:49:26;2.00;;;0.95;;
9559;SDS011;4818;50.860;4.648;2023-05-10T10:52:14;3.37;;;0.70;;
9559;SDS011;4818;50.860;4.648;2023-05-10T10:54:50;1.45;;;0.60;;
9559;SDS011;4818;50.860;4.648;2023-05-10T10:57:17;1.38;;;0.57;;
9559;SDS011;4818;50.860;4.648;2023-05-10T10:59:44;2.83;;;0.73;;
9559;SDS011;4818;50.860;4.648;2023-05-10T11:04:59;0.80;;;0.40;;
9559;SDS011;4818;50.860;4.648;2023-05-10T11:07:25;1.83;;;0.30;;
9559;SDS011;4818;50.860;4.648;2023-05-10T11:09:52;1.63;;;0.40;;
9559;SDS011;4818;50.860;4.648;2023-05-10T11:12:25;1.60;;;0.40;;
9559;SDS011;4818;50.860;4.648;2023-05-10T11:14:56;2.28;;;0.40;;
9559;SDS011;4818;50.860;4.648;2023-05-10T11:17:29;1.02;;;0.30;;
9559;SDS011;4818;50.860;4.648;2023-05-10T11:20:15;1.90;;;0.55;;
9559;SDS011;4818;50.860;4.648;2023-05-10T11:22:54;1.00;;;0.20;;
9559;SDS011;4818;50.860;4.648;2023-05-10T11:25:26;1.67;;;0.35;;
9559;SDS011;4818;50.860;4.648;2023-05-10T11:27:54;0.80;;;0.30;;
9559;SDS011;4818;50.860;4.648;2023-05-10T11:30:23;0.73;;;0.30;;
9559;SDS011;4818;50.860;4.648;2023-05-10T11:32:50;0.75;;;0.30;;
9559;SDS011;4818;50.860;4.648;2023-05-10T11:35:19;0.60;;;0.30;;
9559;SDS011;4818;50.860;4.648;2023-05-10T11:37:47;0.60;;;0.40;;
9559;SDS011;4818;50.860;4.648;2023-05-10T11:40:13;1.38;;;0.40;;
9559;SDS011;4818;50.860;4.648;2023-05-10T11:42:40;0.40;;;0.30;;
9559;SDS011;4818;50.860;4.648;2023-05-10T11:45:08;0.90;;;0.50;;
9559;SDS011;4818;50.860;4.648;2023-05-10T11:47:34;1.10;;;0.57;;
9559;SDS011;4818;50.860;4.648;2023-05-10T11:50:02;1.52;;;0.57;;
9559;SDS011;4818;50.860;4.648;2023-05-10T11:52:28;1.38;;;0.60;;
9559;SDS011;4818;50.860;4.648;2023-05-10T11:54:54;2.25;;;0.60;;
9559;SDS011;4818;50.860;4.648;2023-05-10T11:57:25;1.73;;;0.45;;
9559;SDS011;4818;50.860;4.648;2023-05-10T11:59:57;2.88;;;0.60;;
9559;SDS011;4818;50.860;4.648;2023-05-10T12:02:23;2.25;;;0.50;;
9559;SDS011;4818;50.860;4.648;2023-05-10T12:04:50;0.95;;;0.50;;
9559;SDS011;4818;50.860;4.648;2023-05-10T12:07:21;1.20;;;0.65;;
9559;SDS011;4818;50.860;4.648;2023-05-10T12:10:05;1.57;;;0.50;;
9559;SDS011;4818;50.860;4.648;2023-05-10T12:12:45;5.85;;;0.85;;
9559;SDS011;4818;50.860;4.648;2023-05-10T12:15:19;3.08;;;0.68;;
9559;SDS011;4818;50.860;4.648;2023-05-10T12:17:45;1.60;;;0.93;;
9559;SDS011;4818;50.860;4.648;2023-05-10T12:20:21;2.92;;;0.80;;
9559;SDS011;4818;50.860;4.648;2023-05-10T12:22:51;2.45;;;0.90;;
9559;SDS011;4818;50.860;4.648;2023-05-10T12:25:20;1.80;;;1.00;;
9559;SDS011;4818;50.860;4.648;2023-05-10T12:27:53;1.88;;;1.17;;
9559;SDS011;4818;50.860;4.648;2023-05-10T12:30:28;1.85;;;0.80;;
9559;SDS011;4818;50.860;4.648;2023-05-10T12:33:10;2.38;;;1.08;;
9559;SDS011;4818;50.860;4.648;2023-05-10T12:35:43;2.78;;;0.90;;
9559;SDS011;4818;50.860;4.648;2023-05-10T12:40:54;1.17;;;0.85;;
9559;SDS011;4818;50.860;4.648;2023-05-10T12:43:20;3.10;;;0.52;;
9559;SDS011;4818;50.860;4.648;2023-05-10T12:45:47;1.48;;;0.60;;
9559;SDS011;4818;50.860;4.648;2023-05-10T12:48:15;3.33;;;0.38;;
9559;SDS011;4818;50.860;4.648;2023-05-10T12:50:41;1.48;;;0.60;;
9559;SDS011;4818;50.860;4.648;2023-05-10T12:53:10;0.82;;;0.40;;
9559;SDS011;4818;50.860;4.648;2023-05-10T12:55:44;0.60;;;0.32;;
9559;SDS011;4818;50.860;4.648;2023-05-10T12:58:10;1.23;;;0.60;;
9559;SDS011;4818;50.860;4.648;2023-05-10T13:00:37;1.00;;;0.40;;
9559;SDS011;4818;50.860;4.648;2023-05-10T13:03:03;0.80;;;0.40;;
9559;SDS011;4818;50.860;4.648;2023-05-10T13:07:58;1.98;;;0.50;;
9559;SDS011;4818;50.860;4.648;2023-05-10T13:10:25;1.42;;;0.52;;
9559;SDS011;4818;50.860;4.648;2023-05-10T13:12:53;2.97;;;0.50;;
9559;SDS011;4818;50.860;4.648;2023-05-10T13:15:33;1.00;;;0.50;;
9559;SDS011;4818;50.860;4.648;2023-05-10T13:17:59;1.85;;;0.50;;
9559;SDS011;4818;50.860;4.648;2023-05-10T13:20:28;1.35;;;0.40;;
9559;SDS011;4818;50.860;4.648;2023-05-10T13:22:54;2.35;;;0.98;;
9559;SDS011;4818;50.860;4.648;2023-05-10T13:25:25;2.80;;;0.82;;
9559;SDS011;4818;50.860;4.648;2023-05-10T13:27:52;6.25;;;0.70;;
9559;SDS011;4818;50.860;4.648;2023-05-10T13:30:20;1.92;;;0.40;;
9559;SDS011;4818;50.860;4.648;2023-05-10T13:32:46;1.23;;;0.60;;
9559;SDS011;4818;50.860;4.648;2023-05-10T13:35:12;1.75;;;0.40;;
9559;SDS011;4818;50.860;4.648;2023-05-10T13:37:38;1.52;;;0.50;;
9559;SDS011;4818;50.860;4.648;2023-05-10T13:40:10;1.35;;;0.43;;
9559;SDS011;4818;50.860;4.648;2023-05-10T13:42:43;1.83;;;0.43;;
9559;SDS011;4818;50.860;4.648;2023-05-10T13:45:12;1.05;;;0.40;;
9559;SDS011;4818;50.860;4.648;2023-05-10T13:47:41;1.13;;;0.47;;
9559;SDS011;4818;50.860;4.648;2023-05-10T13:50:26;1.60;;;0.60;;
9559;SDS011;4818;50.860;4.648;2023-05-10T13:52:57;1.77;;;0.38;;
9559;SDS011;4818;50.860;4.648;2023-05-10T13:55:35;0.90;;;0.47;;
9559;SDS011;4818;50.860;4.648;2023-05-10T13:58:01;1.73;;;0.40;;
9559;SDS011;4818;50.860;4.648;2023-05-10T14:00:49;1.23;;;0.57;;
9559;SDS011;4818;50.860;4.648;2023-05-10T14:03:15;1.77;;;0.70;;
9559;SDS011;4818;50.860;4.648;2023-05-10T14:05:42;1.10;;;0.57;;
9559;SDS011;4818;50.860;4.648;2023-05-10T14:08:08;2.00;;;0.55;;
9559;SDS011;4818;50.860;4.648;2023-05-10T14:10:42;1.33;;;0.80;;
9559;SDS011;4818;50.860;4.648;2023-05-10T14:13:11;2.65;;;0.80;;
9559;SDS011;4818;50.860;4.648;2023-05-10T14:15:37;2.55;;;0.65;;
9559;SDS011;4818;50.860;4.648;2023-05-10T14:18:13;1.05;;;0.65;;
9559;SDS011;4818;50.860;4.648;2023-05-10T14:20:59;2.67;;;0.88;;
9559;SDS011;4818;50.860;4.648;2023-05-10T14:23:30;3.65;;;0.57;;
9559;SDS011;4818;50.860;4.648;2023-05-10T14:26:03;1.38;;;0.75;;
9559;SDS011;4818;50.860;4.648;2023-05-10T14:28:37;2.67;;;1.13;;
9559;SDS011;4818;50.860;4.648;2023-05-10T14:31:10;2.03;;;0.73;;
9559;SDS011;4818;50.860;4.648;2023-05-10T14:33:37;2.08;;;1.23;;
9559;SDS011;4818;50.860;4.648;2023-05-10T14:36:06;1.25;;;0.60;;
9559;SDS011;4818;50.860;4.648;2023-05-10T14:38:32;2.65;;;0.95;;
9559;SDS011;4818;50.860;4.648;2023-05-10T14:40:58;1.63;;;0.90;;
9559;SDS011;4818;50.860;4.648;2023-05-10T14:43:29;3.03;;;0.90;;
9559;SDS011;4818;50.860;4.648;2023-05-10T14:45:58;2.97;;;1.15;;
9559;SDS011;4818;50.860;4.648;2023-05-10T14:48:24;5.35;;;0.98;;
9559;SDS011;4818;50.860;4.648;2023-05-10T14:50:50;4.47;;;0.70;;
9559;SDS011;4818;50.860;4.648;2023-05-10T14:53:17;3.47;;;1.17;;
9559;SDS011;4818;50.860;4.648;2023-05-10T14:55:48;2.28;;;1.15;;
9559;SDS011;4818;50.860;4.648;2023-05-10T14:58:17;1.65;;;1.00;;
9559;SDS011;4818;50.860;4.648;2023-05-10T15:00:43;4.38;;;1.08;;
9559;SDS011;4818;50.860;4.648;2023-05-10T15:03:12;4.05;;;1.20;;
9559;SDS011;4818;50.860;4.648;2023-05-10T15:05:43;2.35;;;1.17;;
9559;SDS011;4818;50.860;4.648;2023-05-10T15:08:14;2.80;;;1.05;;
9559;SDS011;4818;50.860;4.648;2023-05-10T15:10:50;2.95;;;1.70;;
9559;SDS011;4818;50.860;4.648;2023-05-10T15:13:16;4.63;;;1.90;;
9559;SDS011;4818;50.860;4.648;2023-05-10T15:15:47;7.05;;;2.53;;
9559;SDS011;4818;50.860;4.648;2023-05-10T15:18:14;6.03;;;2.95;;
9559;SDS011;4818;50.860;4.648;2023-05-10T15:20:40;5.07;;;2.40;;
9559;SDS011;4818;50.860;4.648;2023-05-10T15:23:06;6.95;;;2.88;;
9559;SDS011;4818;50.860;4.648;2023-05-10T15:25:35;4.50;;;3.03;;
9559;SDS011;4818;50.860;4.648;2023-05-10T15:28:04;8.27;;;3.70;;
9559;SDS011;4818;50.860;4.648;2023-05-10T15:30:33;4.35;;;2.78;;
9559;SDS011;4818;50.860;4.648;2023-05-10T15:33:04;5.80;;;3.63;;
9559;SDS011;4818;50.860;4.648;2023-05-10T15:35:37;9.63;;;4.25;;
9559;SDS011;4818;50.860;4.648;2023-05-10T15:38:09;9.45;;;5.68;;
9559;SDS011;4818;50.860;4.648;2023-05-10T15:40:35;10.10;;;5.28;;
9559;SDS011;4818;50.860;4.648;2023-05-10T15:43:01;10.43;;;6.68;;
9559;SDS011;4818;50.860;4.648;2023-05-10T15:45:37;9.38;;;5.63;;
9559;SDS011;4818;50.860;4.648;2023-05-10T15:48:08;10.07;;;5.50;;
9559;SDS011;4818;50.860;4.648;2023-05-10T15:50:50;13.88;;;4.57;;
9559;SDS011;4818;50.860;4.648;2023-05-10T15:53:17;8.90;;;4.93;;
9559;SDS011;4818;50.860;4.648;2023-05-10T15:55:43;9.80;;;4.45;;
9559;SDS011;4818;50.860;4.648;2023-05-10T15:58:09;10.55;;;4.28;;
9559;SDS011;4818;50.860;4.648;2023-05-10T16:00:36;10.63;;;4.93;;